sensor_id;sensor_type;location;lat;lon;timestamp;temperature;humidity
5476;DHT22;2760;50.000;9.194;2024-03-08T00:01:22;6.00;99.90
5476;DHT22;2760;50.000;9.194;2024-03-08T00:03:50;4.60;99.90
5476;DHT22;2760;50.000;9.194;2024-03-08T00:06:17;4.50;99.90
5476;DHT22;2760;50.000;9.194;2024-03-08T00:08:44;4.60;99.90
5476;DHT22;2760;50.000;9.194;2024-03-08T00:11:12;4.50;99.90
5476;DHT22;2760;50.000;9.194;2024-03-08T00:13:40;4.50;99.90
5476;DHT22;2760;50.000;9.194;2024-03-08T00:16:07;4.40;99.90
5476;DHT22;2760;50.000;9.194;2024-03-08T00:18:35;5.70;99.90
5476;DHT22;2760;50.000;9.194;2024-03-08T00:21:02;5.40;99.90
5476;DHT22;2760;50.000;9.194;2024-03-08T00:23:30;6.80;99.90
5476;DHT22;2760;50.000;9.194;2024-03-08T00:25:59;4.40;99.90
5476;DHT22;2760;50.000;9.194;2024-03-08T00:28:27;4.40;99.90
5476;DHT22;2760;50.000;9.194;2024-03-08T00:30:57;4.30;99.90
5476;DHT22;2760;50.000;9.194;2024-03-08T00:33:24;4.60;99.90
5476;DHT22;2760;50.000;9.194;2024-03-08T00:35:53;4.30;99.90
5476;DHT22;2760;50.000;9.194;2024-03-08T00:38:20;5.40;99.90
5476;DHT22;2760;50.000;9.194;2024-03-08T00:40:47;4.30;99.90
5476;DHT22;2760;50.000;9.194;2024-03-08T00:43:14;3.50;99.90
5476;DHT22;2760;50.000;9.194;2024-03-08T00:45:43;5.90;99.90
5476;DHT22;2760;50.000;9.194;2024-03-08T00:48:10;4.20;99.90
5476;DHT22;2760;50.000;9.194;2024-03-08T00:50:39;4.30;99.90
5476;DHT22;2760;50.000;9.194;2024-03-08T00:53:10;4.20;99.90
5476;DHT22;2760;50.000;9.194;2024-03-08T00:55:37;4.10;99.90
5476;DHT22;2760;50.000;9.194;2024-03-08T00:58:05;3.90;99.90
5476;DHT22;2760;50.000;9.194;2024-03-08T01:00:32;4.10;99.90
5476;DHT22;2760;50.000;9.194;2024-03-08T01:03:06;4.10;99.90
5476;DHT22;2760;50.000;9.194;2024-03-08T01:05:33;4.00;99.90
5476;DHT22;2760;50.000;9.194;2024-03-08T01:08:01;5.60;99.90
5476;DHT22;2760;50.000;9.194;2024-03-08T01:10:29;5.40;99.90
5476;DHT22;2760;50.000;9.194;2024-03-08T01:12:56;4.10;99.90
5476;DHT22;2760;50.000;9.194;2024-03-08T01:15:25;4.30;99.90
5476;DHT22;2760;50.000;9.194;2024-03-08T01:17:52;3.90;99.90
5476;DHT22;2760;50.000;9.194;2024-03-08T01:20:21;4.00;99.90
5476;DHT22;2760;50.000;9.194;2024-03-08T01:22:48;4.00;99.90
5476;DHT22;2760;50.000;9.194;2024-03-08T01:25:15;4.10;99.90
5476;DHT22;2760;50.000;9.194;2024-03-08T01:27:42;4.00;99.90
5476;DHT22;2760;50.000;9.194;2024-03-08T01:30:10;3.90;99.90
5476;DHT22;2760;50.000;9.194;2024-03-08T01:32:38;4.00;99.90
5476;DHT22;2760;50.000;9.194;2024-03-08T01:35:06;4.00;99.90
5476;DHT22;2760;50.000;9.194;2024-03-08T01:37:38;4.00;99.90
5476;DHT22;2760;50.000;9.194;2024-03-08T01:40:06;3.90;99.90
5476;DHT22;2760;50.000;9.194;2024-03-08T01:42:34;3.90;99.90
5476;DHT22;2760;50.000;9.194;2024-03-08T01:45:04;3.80;99.90
5476;DHT22;2760;50.000;9.194;2024-03-08T01:47:32;3.80;99.90
5476;DHT22;2760;50.000;9.194;2024-03-08T01:49:59;5.00;99.90
5476;DHT22;2760;50.000;9.194;2024-03-08T01:52:27;3.60;99.90
5476;DHT22;2760;50.000;9.194;2024-03-08T01:54:59;5.00;99.90
5476;DHT22;2760;50.000;9.194;2024-03-08T01:57:31;3.50;99.90
5476;DHT22;2760;50.000;9.194;2024-03-08T01:59:59;3.60;99.90
5476;DHT22;2760;50.000;9.194;2024-03-08T02:02:32;3.50;99.90
5476;DHT22;2760;50.000;9.194;2024-03-08T02:05:00;3.50;99.90
5476;DHT22;2760;50.000;9.194;2024-03-08T02:07:28;3.40;99.90
5476;DHT22;2760;50.000;9.194;2024-03-08T02:09:56;3.50;99.90
5476;DHT22;2760;50.000;9.194;2024-03-08T02:12:24;5.00;99.90
5476;DHT22;2760;50.000;9.194;2024-03-08T02:14:51;3.40;99.90
5476;DHT22;2760;50.000;9.194;2024-03-08T02:17:21;3.30;99.90
5476;DHT22;2760;50.000;9.194;2024-03-08T02:19:48;4.50;99.90
5476;DHT22;2760;50.000;9.194;2024-03-08T02:22:17;3.30;99.90
5476;DHT22;2760;50.000;9.194;2024-03-08T02:24:44;3.40;99.90
5476;DHT22;2760;50.000;9.194;2024-03-08T02:27:11;3.30;99.90
5476;DHT22;2760;50.000;9.194;2024-03-08T02:29:40;3.20;99.90
5476;DHT22;2760;50.000;9.194;2024-03-08T02:32:10;5.70;99.90
5476;DHT22;2760;50.000;9.194;2024-03-08T02:37:05;3.20;99.90
5476;DHT22;2760;50.000;9.194;2024-03-08T02:39:34;3.10;99.90
5476;DHT22;2760;50.000;9.194;2024-03-08T02:42:01;3.00;99.90
5476;DHT22;2760;50.000;9.194;2024-03-08T02:46:56;3.10;99.90
5476;DHT22;2760;50.000;9.194;2024-03-08T02:49:23;3.10;99.90
5476;DHT22;2760;50.000;9.194;2024-03-08T02:51:50;3.10;99.90
5476;DHT22;2760;50.000;9.194;2024-03-08T02:54:17;3.70;99.90
5476;DHT22;2760;50.000;9.194;2024-03-08T02:56:46;3.00;99.90
5476;DHT22;2760;50.000;9.194;2024-03-08T03:01:44;3.00;99.90
5476;DHT22;2760;50.000;9.194;2024-03-08T03:04:14;2.90;99.90
5476;DHT22;2760;50.000;9.194;2024-03-08T03:06:41;2.90;99.90
5476;DHT22;2760;50.000;9.194;2024-03-08T03:09:08;2.90;99.90
5476;DHT22;2760;50.000;9.194;2024-03-08T03:11:36;2.90;99.90
5476;DHT22;2760;50.000;9.194;2024-03-08T03:14:06;2.80;99.90
5476;DHT22;2760;50.000;9.194;2024-03-08T03:16:33;2.80;99.90
5476;DHT22;2760;50.000;9.194;2024-03-08T03:19:00;2.80;99.90
5476;DHT22;2760;50.000;9.194;2024-03-08T03:21:31;2.80;99.90
5476;DHT22;2760;50.000;9.194;2024-03-08T03:24:01;2.80;99.90
5476;DHT22;2760;50.000;9.194;2024-03-08T03:26:29;2.90;99.90
5476;DHT22;2760;50.000;9.194;2024-03-08T03:28:56;2.70;99.90
5476;DHT22;2760;50.000;9.194;2024-03-08T03:31:27;3.40;99.90
5476;DHT22;2760;50.000;9.194;2024-03-08T03:33:55;2.70;99.90
5476;DHT22;2760;50.000;9.194;2024-03-08T03:36:27;4.50;99.90
5476;DHT22;2760;50.000;9.194;2024-03-08T03:38:54;2.70;99.90
5476;DHT22;2760;50.000;9.194;2024-03-08T03:44:04;2.70;99.90
5476;DHT22;2760;50.000;9.194;2024-03-08T03:46:35;2.70;99.90
5476;DHT22;2760;50.000;9.194;2024-03-08T03:49:02;2.60;99.90
5476;DHT22;2760;50.000;9.194;2024-03-08T03:51:30;2.70;99.90
5476;DHT22;2760;50.000;9.194;2024-03-08T03:53:57;2.60;99.90
5476;DHT22;2760;50.000;9.194;2024-03-08T03:56:27;2.60;99.90
5476;DHT22;2760;50.000;9.194;2024-03-08T03:58:54;2.70;99.90
5476;DHT22;2760;50.000;9.194;2024-03-08T04:01:22;2.60;99.90
5476;DHT22;2760;50.000;9.194;2024-03-08T04:03:51;2.60;99.90
5476;DHT22;2760;50.000;9.194;2024-03-08T04:06:18;2.60;99.90
5476;DHT22;2760;50.000;9.194;2024-03-08T04:11:13;1.90;99.90
5476;DHT22;2760;50.000;9.194;2024-03-08T04:13:42;2.50;99.90
5476;DHT22;2760;50.000;9.194;2024-03-08T04:16:09;2.50;99.90
5476;DHT22;2760;50.000;9.194;2024-03-08T04:18:37;2.60;99.90
5476;DHT22;2760;50.000;9.194;2024-03-08T04:21:05;2.60;99.90
5476;DHT22;2760;50.000;9.194;2024-03-08T04:23:33;2.60;99.90
5476;DHT22;2760;50.000;9.194;2024-03-08T04:26:01;3.20;99.90
5476;DHT22;2760;50.000;9.194;2024-03-08T04:28:29;3.20;99.90
5476;DHT22;2760;50.000;9.194;2024-03-08T04:30:57;2.50;99.90
5476;DHT22;2760;50.000;9.194;2024-03-08T04:33:26;2.50;99.90
5476;DHT22;2760;50.000;9.194;2024-03-08T04:35:53;2.40;99.90
5476;DHT22;2760;50.000;9.194;2024-03-08T04:38:22;3.70;99.90
5476;DHT22;2760;50.000;9.194;2024-03-08T04:40:50;2.50;99.90
5476;DHT22;2760;50.000;9.194;2024-03-08T04:43:18;4.50;99.90
5476;DHT22;2760;50.000;9.194;2024-03-08T04:45:46;2.50;99.90
5476;DHT22;2760;50.000;9.194;2024-03-08T04:48:14;3.70;99.90
5476;DHT22;2760;50.000;9.194;2024-03-08T04:50:41;2.40;99.90
5476;DHT22;2760;50.000;9.194;2024-03-08T04:53:10;4.50;99.90
5476;DHT22;2760;50.000;9.194;2024-03-08T04:55:39;2.40;99.90
5476;DHT22;2760;50.000;9.194;2024-03-08T04:58:06;3.80;99.90
5476;DHT22;2760;50.000;9.194;2024-03-08T05:00:33;3.00;99.90
5476;DHT22;2760;50.000;9.194;2024-03-08T05:03:00;2.40;99.90
5476;DHT22;2760;50.000;9.194;2024-03-08T05:05:28;2.50;99.90
5476;DHT22;2760;50.000;9.194;2024-03-08T05:07:55;3.70;99.90
5476;DHT22;2760;50.000;9.194;2024-03-08T05:10:23;2.30;99.90
5476;DHT22;2760;50.000;9.194;2024-03-08T05:12:52;4.70;99.90
5476;DHT22;2760;50.000;9.194;2024-03-08T05:15:19;2.30;99.90
5476;DHT22;2760;50.000;9.194;2024-03-08T05:17:47;2.20;99.90
5476;DHT22;2760;50.000;9.194;2024-03-08T05:20:14;3.30;99.90
5476;DHT22;2760;50.000;9.194;2024-03-08T05:22:43;2.00;99.90
5476;DHT22;2760;50.000;9.194;2024-03-08T05:25:12;2.00;99.90
5476;DHT22;2760;50.000;9.194;2024-03-08T05:27:40;3.70;99.90
5476;DHT22;2760;50.000;9.194;2024-03-08T05:30:09;3.10;99.90
5476;DHT22;2760;50.000;9.194;2024-03-08T05:32:40;1.80;99.90
5476;DHT22;2760;50.000;9.194;2024-03-08T05:35:10;4.10;99.90
5476;DHT22;2760;50.000;9.194;2024-03-08T05:37:37;3.20;99.90
5476;DHT22;2760;50.000;9.194;2024-03-08T05:40:06;1.80;99.90
5476;DHT22;2760;50.000;9.194;2024-03-08T05:42:35;1.90;99.90
5476;DHT22;2760;50.000;9.194;2024-03-08T05:45:03;-2.00;99.90
5476;DHT22;2760;50.000;9.194;2024-03-08T05:47:33;1.70;99.90
5476;DHT22;2760;50.000;9.194;2024-03-08T05:50:01;3.90;99.90
5476;DHT22;2760;50.000;9.194;2024-03-08T05:52:31;1.80;99.90
5476;DHT22;2760;50.000;9.194;2024-03-08T05:54:59;4.20;99.90
5476;DHT22;2760;50.000;9.194;2024-03-08T05:57:26;4.20;99.90
5476;DHT22;2760;50.000;9.194;2024-03-08T05:59:53;1.70;99.90
5476;DHT22;2760;50.000;9.194;2024-03-08T06:02:20;4.20;99.90
5476;DHT22;2760;50.000;9.194;2024-03-08T06:04:48;1.60;99.90
5476;DHT22;2760;50.000;9.194;2024-03-08T06:07:15;1.80;99.90
5476;DHT22;2760;50.000;9.194;2024-03-08T06:09:43;1.90;99.90
5476;DHT22;2760;50.000;9.194;2024-03-08T06:12:12;4.20;99.90
5476;DHT22;2760;50.000;9.194;2024-03-08T06:14:44;1.90;99.90
5476;DHT22;2760;50.000;9.194;2024-03-08T06:17:11;1.80;99.90
5476;DHT22;2760;50.000;9.194;2024-03-08T06:19:38;1.80;99.90
5476;DHT22;2760;50.000;9.194;2024-03-08T06:22:07;1.70;99.90
5476;DHT22;2760;50.000;9.194;2024-03-08T06:24:35;1.80;99.90
5476;DHT22;2760;50.000;9.194;2024-03-08T06:27:05;1.90;99.90
5476;DHT22;2760;50.000;9.194;2024-03-08T06:29:35;1.90;99.90
5476;DHT22;2760;50.000;9.194;2024-03-08T06:32:02;2.00;99.90
5476;DHT22;2760;50.000;9.194;2024-03-08T06:36:57;2.20;99.90
5476;DHT22;2760;50.000;9.194;2024-03-08T06:39:28;2.30;99.90
5476;DHT22;2760;50.000;9.194;2024-03-08T06:41:57;2.30;99.90
5476;DHT22;2760;50.000;9.194;2024-03-08T06:44:24;2.40;99.90
5476;DHT22;2760;50.000;9.194;2024-03-08T06:46:51;2.40;99.90
5476;DHT22;2760;50.000;9.194;2024-03-08T06:49:18;2.60;99.90
5476;DHT22;2760;50.000;9.194;2024-03-08T06:51:47;2.70;99.90
5476;DHT22;2760;50.000;9.194;2024-03-08T06:54:14;2.80;99.90
5476;DHT22;2760;50.000;9.194;2024-03-08T06:56:43;2.90;99.90
5476;DHT22;2760;50.000;9.194;2024-03-08T06:59:10;2.90;99.90
5476;DHT22;2760;50.000;9.194;2024-03-08T07:01:37;3.00;99.90
5476;DHT22;2760;50.000;9.194;2024-03-08T07:04:04;3.10;99.90
5476;DHT22;2760;50.000;9.194;2024-03-08T07:06:32;3.20;99.90
5476;DHT22;2760;50.000;9.194;2024-03-08T07:09:00;3.30;99.90
5476;DHT22;2760;50.000;9.194;2024-03-08T07:11:27;3.40;99.90
5476;DHT22;2760;50.000;9.194;2024-03-08T07:13:55;3.40;99.90
5476;DHT22;2760;50.000;9.194;2024-03-08T07:16:24;5.40;99.90
5476;DHT22;2760;50.000;9.194;2024-03-08T07:18:52;3.60;99.90
5476;DHT22;2760;50.000;9.194;2024-03-08T07:21:19;3.70;99.90
5476;DHT22;2760;50.000;9.194;2024-03-08T07:23:46;4.00;99.90
5476;DHT22;2760;50.000;9.194;2024-03-08T07:26:28;5.60;99.90
5476;DHT22;2760;50.000;9.194;2024-03-08T07:28:57;4.40;99.90
5476;DHT22;2760;50.000;9.194;2024-03-08T07:31:26;6.00;99.90
5476;DHT22;2760;50.000;9.194;2024-03-08T07:34:03;5.10;99.90
5476;DHT22;2760;50.000;9.194;2024-03-08T07:36:33;5.40;99.90
5476;DHT22;2760;50.000;9.194;2024-03-08T07:39:01;5.70;99.90
5476;DHT22;2760;50.000;9.194;2024-03-08T07:41:28;5.90;99.90
5476;DHT22;2760;50.000;9.194;2024-03-08T07:43:57;5.80;99.90
5476;DHT22;2760;50.000;9.194;2024-03-08T07:46:24;7.70;99.90
5476;DHT22;2760;50.000;9.194;2024-03-08T07:48:51;7.80;99.90
5476;DHT22;2760;50.000;9.194;2024-03-08T07:51:18;7.80;99.90
5476;DHT22;2760;50.000;9.194;2024-03-08T07:53:46;8.80;99.90
5476;DHT22;2760;50.000;9.194;2024-03-08T07:56:13;7.90;99.90
5476;DHT22;2760;50.000;9.194;2024-03-08T07:58:42;6.50;99.90
5476;DHT22;2760;50.000;9.194;2024-03-08T08:01:17;8.20;99.90
5476;DHT22;2760;50.000;9.194;2024-03-08T08:03:44;7.90;99.90
5476;DHT22;2760;50.000;9.194;2024-03-08T08:06:11;8.60;99.90
5476;DHT22;2760;50.000;9.194;2024-03-08T08:08:41;7.00;99.90
5476;DHT22;2760;50.000;9.194;2024-03-08T08:11:08;6.80;99.80
5476;DHT22;2760;50.000;9.194;2024-03-08T08:13:37;7.00;99.70
5476;DHT22;2760;50.000;9.194;2024-03-08T08:16:05;6.90;99.90
5476;DHT22;2760;50.000;9.194;2024-03-08T08:18:34;6.90;99.90
5476;DHT22;2760;50.000;9.194;2024-03-08T08:21:01;9.40;99.90
5476;DHT22;2760;50.000;9.194;2024-03-08T08:23:28;7.90;98.70
5476;DHT22;2760;50.000;9.194;2024-03-08T08:25:56;7.90;99.20
5476;DHT22;2760;50.000;9.194;2024-03-08T08:28:23;7.90;99.00
5476;DHT22;2760;50.000;9.194;2024-03-08T08:30:50;8.80;99.30
5476;DHT22;2760;50.000;9.194;2024-03-08T08:33:17;8.40;99.30
5476;DHT22;2760;50.000;9.194;2024-03-08T08:35:46;8.70;99.20
5476;DHT22;2760;50.000;9.194;2024-03-08T08:38:17;7.80;97.80
5476;DHT22;2760;50.000;9.194;2024-03-08T08:40:45;7.80;98.10
5476;DHT22;2760;50.000;9.194;2024-03-08T08:43:13;6.70;98.30
5476;DHT22;2760;50.000;9.194;2024-03-08T08:45:40;9.00;98.60
5476;DHT22;2760;50.000;9.194;2024-03-08T08:48:09;9.40;98.90
5476;DHT22;2760;50.000;9.194;2024-03-08T08:50:37;10.60;98.60
5476;DHT22;2760;50.000;9.194;2024-03-08T08:53:06;9.90;98.40
5476;DHT22;2760;50.000;9.194;2024-03-08T08:55:33;10.80;98.40
5476;DHT22;2760;50.000;9.194;2024-03-08T08:58:01;11.10;98.00
5476;DHT22;2760;50.000;9.194;2024-03-08T09:00:29;10.40;97.60
5476;DHT22;2760;50.000;9.194;2024-03-08T09:02:57;9.10;96.90
5476;DHT22;2760;50.000;9.194;2024-03-08T09:05:24;10.40;96.40
5476;DHT22;2760;50.000;9.194;2024-03-08T09:07:52;10.90;97.20
5476;DHT22;2760;50.000;9.194;2024-03-08T09:10:21;9.30;96.60
5476;DHT22;2760;50.000;9.194;2024-03-08T09:12:49;9.50;95.80
5476;DHT22;2760;50.000;9.194;2024-03-08T09:15:16;11.00;96.50
5476;DHT22;2760;50.000;9.194;2024-03-08T09:17:46;9.80;95.80
5476;DHT22;2760;50.000;9.194;2024-03-08T09:20:14;9.60;95.70
5476;DHT22;2760;50.000;9.194;2024-03-08T09:22:43;11.10;95.80
5476;DHT22;2760;50.000;9.194;2024-03-08T09:25:10;7.70;94.80
5476;DHT22;2760;50.000;9.194;2024-03-08T09:27:39;11.10;95.20
5476;DHT22;2760;50.000;9.194;2024-03-08T09:30:07;11.40;94.70
5476;DHT22;2760;50.000;9.194;2024-03-08T09:32:34;10.20;93.70
5476;DHT22;2760;50.000;9.194;2024-03-08T09:35:02;12.40;94.80
5476;DHT22;2760;50.000;9.194;2024-03-08T09:37:32;9.90;94.50
5476;DHT22;2760;50.000;9.194;2024-03-08T09:39:59;11.40;94.30
5476;DHT22;2760;50.000;9.194;2024-03-08T09:42:30;10.20;93.40
5476;DHT22;2760;50.000;9.194;2024-03-08T09:44:59;10.20;93.40
5476;DHT22;2760;50.000;9.194;2024-03-08T09:47:28;12.00;94.20
5476;DHT22;2760;50.000;9.194;2024-03-08T09:49:59;10.90;93.30
5476;DHT22;2760;50.000;9.194;2024-03-08T09:52:27;10.40;92.40
5476;DHT22;2760;50.000;9.194;2024-03-08T09:54:56;10.40;93.10
5476;DHT22;2760;50.000;9.194;2024-03-08T09:57:23;11.40;93.50
5476;DHT22;2760;50.000;9.194;2024-03-08T09:59:53;10.80;92.70
5476;DHT22;2760;50.000;9.194;2024-03-08T10:02:21;12.00;93.20
5476;DHT22;2760;50.000;9.194;2024-03-08T10:04:48;13.10;93.90
5476;DHT22;2760;50.000;9.194;2024-03-08T10:07:15;12.60;93.50
5476;DHT22;2760;50.000;9.194;2024-03-08T10:09:42;12.80;93.10
5476;DHT22;2760;50.000;9.194;2024-03-08T10:12:15;10.80;92.60
5476;DHT22;2760;50.000;9.194;2024-03-08T10:14:43;11.30;92.20
5476;DHT22;2760;50.000;9.194;2024-03-08T10:17:10;12.80;92.60
5476;DHT22;2760;50.000;9.194;2024-03-08T10:19:39;13.80;93.60
5476;DHT22;2760;50.000;9.194;2024-03-08T10:22:15;11.40;91.40
5476;DHT22;2760;50.000;9.194;2024-03-08T10:24:45;12.30;91.80
5476;DHT22;2760;50.000;9.194;2024-03-08T10:27:12;11.60;91.50
5476;DHT22;2760;50.000;9.194;2024-03-08T10:29:41;12.60;92.00
5476;DHT22;2760;50.000;9.194;2024-03-08T10:32:10;11.90;91.80
5476;DHT22;2760;50.000;9.194;2024-03-08T10:34:39;12.50;91.50
5476;DHT22;2760;50.000;9.194;2024-03-08T10:37:08;13.20;92.10
5476;DHT22;2760;50.000;9.194;2024-03-08T10:39:39;11.70;90.60
5476;DHT22;2760;50.000;9.194;2024-03-08T10:42:12;12.50;91.40
5476;DHT22;2760;50.000;9.194;2024-03-08T10:44:57;12.00;90.80
5476;DHT22;2760;50.000;9.194;2024-03-08T10:47:26;12.00;90.60
5476;DHT22;2760;50.000;9.194;2024-03-08T10:50:07;12.10;90.60
5476;DHT22;2760;50.000;9.194;2024-03-08T10:52:39;13.70;90.70
5476;DHT22;2760;50.000;9.194;2024-03-08T10:55:07;14.20;91.60
5476;DHT22;2760;50.000;9.194;2024-03-08T10:57:39;12.50;90.70
5476;DHT22;2760;50.000;9.194;2024-03-08T11:00:08;12.90;90.60
5476;DHT22;2760;50.000;9.194;2024-03-08T11:02:37;13.60;88.80
5476;DHT22;2760;50.000;9.194;2024-03-08T11:05:10;12.90;89.20
5476;DHT22;2760;50.000;9.194;2024-03-08T11:07:41;13.10;89.40
5476;DHT22;2760;50.000;9.194;2024-03-08T11:10:19;13.00;88.80
5476;DHT22;2760;50.000;9.194;2024-03-08T11:12:46;12.80;90.10
5476;DHT22;2760;50.000;9.194;2024-03-08T11:15:14;13.90;90.00
5476;DHT22;2760;50.000;9.194;2024-03-08T11:17:48;13.00;88.50
5476;DHT22;2760;50.000;9.194;2024-03-08T11:20:17;14.80;89.80
5476;DHT22;2760;50.000;9.194;2024-03-08T11:22:53;13.00;89.10
5476;DHT22;2760;50.000;9.194;2024-03-08T11:25:34;14.40;89.00
5476;DHT22;2760;50.000;9.194;2024-03-08T11:28:17;12.80;89.10
5476;DHT22;2760;50.000;9.194;2024-03-08T11:30:45;14.80;90.70
5476;DHT22;2760;50.000;9.194;2024-03-08T11:33:15;13.10;88.60
5476;DHT22;2760;50.000;9.194;2024-03-08T11:35:44;13.00;87.70
5476;DHT22;2760;50.000;9.194;2024-03-08T11:38:12;14.00;89.90
5476;DHT22;2760;50.000;9.194;2024-03-08T11:40:40;13.30;87.00
5476;DHT22;2760;50.000;9.194;2024-03-08T11:43:08;15.00;90.30
5476;DHT22;2760;50.000;9.194;2024-03-08T11:45:35;13.40;86.70
5476;DHT22;2760;50.000;9.194;2024-03-08T11:48:03;14.50;89.60
5476;DHT22;2760;50.000;9.194;2024-03-08T11:50:31;13.00;88.00
5476;DHT22;2760;50.000;9.194;2024-03-08T11:53:04;11.50;86.20
5476;DHT22;2760;50.000;9.194;2024-03-08T11:55:32;12.80;88.80
5476;DHT22;2760;50.000;9.194;2024-03-08T11:58:05;15.50;90.00
5476;DHT22;2760;50.000;9.194;2024-03-08T12:00:34;14.50;86.70
5476;DHT22;2760;50.000;9.194;2024-03-08T12:03:05;13.70;86.60
5476;DHT22;2760;50.000;9.194;2024-03-08T12:05:33;14.50;87.50
5476;DHT22;2760;50.000;9.194;2024-03-08T12:08:00;13.40;85.60
5476;DHT22;2760;50.000;9.194;2024-03-08T12:10:30;15.30;89.00
5476;DHT22;2760;50.000;9.194;2024-03-08T12:12:58;13.30;87.10
5476;DHT22;2760;50.000;9.194;2024-03-08T12:15:26;13.70;86.30
5476;DHT22;2760;50.000;9.194;2024-03-08T12:17:54;13.30;87.10
5476;DHT22;2760;50.000;9.194;2024-03-08T12:20:25;13.30;86.80
5476;DHT22;2760;50.000;9.194;2024-03-08T12:22:53;14.10;87.10
5476;DHT22;2760;50.000;9.194;2024-03-08T12:25:19;13.30;85.70
5476;DHT22;2760;50.000;9.194;2024-03-08T12:27:48;13.60;85.80
5476;DHT22;2760;50.000;9.194;2024-03-08T12:30:20;14.70;87.40
5476;DHT22;2760;50.000;9.194;2024-03-08T12:32:55;13.70;84.70
5476;DHT22;2760;50.000;9.194;2024-03-08T12:35:24;14.70;86.70
5476;DHT22;2760;50.000;9.194;2024-03-08T12:37:53;13.10;84.30
5476;DHT22;2760;50.000;9.194;2024-03-08T12:40:26;15.40;87.10
5476;DHT22;2760;50.000;9.194;2024-03-08T12:42:55;14.20;85.60
5476;DHT22;2760;50.000;9.194;2024-03-08T12:45:23;13.80;85.40
5476;DHT22;2760;50.000;9.194;2024-03-08T12:47:50;14.90;88.20
5476;DHT22;2760;50.000;9.194;2024-03-08T12:50:18;13.00;83.60
5476;DHT22;2760;50.000;9.194;2024-03-08T12:52:47;13.60;85.10
5476;DHT22;2760;50.000;9.194;2024-03-08T12:55:16;13.80;85.40
5476;DHT22;2760;50.000;9.194;2024-03-08T12:57:44;14.10;85.50
5476;DHT22;2760;50.000;9.194;2024-03-08T13:00:14;16.00;87.60
5476;DHT22;2760;50.000;9.194;2024-03-08T13:02:45;14.00;84.30
5476;DHT22;2760;50.000;9.194;2024-03-08T13:05:13;13.90;84.70
5476;DHT22;2760;50.000;9.194;2024-03-08T13:07:41;13.80;85.60
5476;DHT22;2760;50.000;9.194;2024-03-08T13:10:12;14.30;84.70
5476;DHT22;2760;50.000;9.194;2024-03-08T13:12:41;14.30;84.20
5476;DHT22;2760;50.000;9.194;2024-03-08T13:15:08;14.50;84.30
5476;DHT22;2760;50.000;9.194;2024-03-08T13:17:39;14.70;84.00
5476;DHT22;2760;50.000;9.194;2024-03-08T13:20:07;14.40;84.10
5476;DHT22;2760;50.000;9.194;2024-03-08T13:22:35;14.00;84.70
5476;DHT22;2760;50.000;9.194;2024-03-08T13:25:02;15.90;86.90
5476;DHT22;2760;50.000;9.194;2024-03-08T13:27:30;12.80;82.50
5476;DHT22;2760;50.000;9.194;2024-03-08T13:29:57;14.50;83.70
5476;DHT22;2760;50.000;9.194;2024-03-08T13:32:25;14.30;84.30
5476;DHT22;2760;50.000;9.194;2024-03-08T13:34:53;14.20;84.80
5476;DHT22;2760;50.000;9.194;2024-03-08T13:37:21;14.60;84.30
5476;DHT22;2760;50.000;9.194;2024-03-08T13:39:48;14.40;83.80
5476;DHT22;2760;50.000;9.194;2024-03-08T13:42:16;15.10;83.60
5476;DHT22;2760;50.000;9.194;2024-03-08T13:44:43;15.40;82.60
5476;DHT22;2760;50.000;9.194;2024-03-08T13:47:12;14.80;82.40
5476;DHT22;2760;50.000;9.194;2024-03-08T13:49:39;14.70;82.40
5476;DHT22;2760;50.000;9.194;2024-03-08T13:52:07;14.30;84.70
5476;DHT22;2760;50.000;9.194;2024-03-08T13:54:35;15.40;82.90
5476;DHT22;2760;50.000;9.194;2024-03-08T13:57:02;15.10;82.70
5476;DHT22;2760;50.000;9.194;2024-03-08T13:59:30;14.80;82.30
5476;DHT22;2760;50.000;9.194;2024-03-08T14:01:59;14.80;82.90
5476;DHT22;2760;50.000;9.194;2024-03-08T14:04:27;14.30;82.30
5476;DHT22;2760;50.000;9.194;2024-03-08T14:06:55;14.50;82.80
5476;DHT22;2760;50.000;9.194;2024-03-08T14:09:30;14.30;83.10
5476;DHT22;2760;50.000;9.194;2024-03-08T14:11:57;14.30;83.40
5476;DHT22;2760;50.000;9.194;2024-03-08T14:14:25;15.10;83.30
5476;DHT22;2760;50.000;9.194;2024-03-08T14:16:53;13.60;82.50
5476;DHT22;2760;50.000;9.194;2024-03-08T14:19:26;14.00;83.50
5476;DHT22;2760;50.000;9.194;2024-03-08T14:21:53;13.80;83.70
5476;DHT22;2760;50.000;9.194;2024-03-08T14:24:21;14.20;84.20
5476;DHT22;2760;50.000;9.194;2024-03-08T14:26:51;13.90;83.90
5476;DHT22;2760;50.000;9.194;2024-03-08T14:29:19;12.70;83.00
5476;DHT22;2760;50.000;9.194;2024-03-08T14:31:46;15.30;85.30
5476;DHT22;2760;50.000;9.194;2024-03-08T14:34:13;14.00;83.90
5476;DHT22;2760;50.000;9.194;2024-03-08T14:36:40;14.50;83.30
5476;DHT22;2760;50.000;9.194;2024-03-08T14:39:09;13.50;82.60
5476;DHT22;2760;50.000;9.194;2024-03-08T14:41:36;14.40;84.20
5476;DHT22;2760;50.000;9.194;2024-03-08T14:44:04;15.00;84.40
5476;DHT22;2760;50.000;9.194;2024-03-08T14:46:31;15.20;84.20
5476;DHT22;2760;50.000;9.194;2024-03-08T14:48:59;13.40;82.70
5476;DHT22;2760;50.000;9.194;2024-03-08T14:51:26;15.00;83.90
5476;DHT22;2760;50.000;9.194;2024-03-08T14:53:53;13.90;82.30
5476;DHT22;2760;50.000;9.194;2024-03-08T14:56:21;14.00;81.10
5476;DHT22;2760;50.000;9.194;2024-03-08T14:58:48;13.70;82.80
5476;DHT22;2760;50.000;9.194;2024-03-08T15:01:19;14.30;83.30
5476;DHT22;2760;50.000;9.194;2024-03-08T15:03:50;15.40;83.90
5476;DHT22;2760;50.000;9.194;2024-03-08T15:06:17;13.50;83.00
5476;DHT22;2760;50.000;9.194;2024-03-08T15:08:46;13.90;82.90
5476;DHT22;2760;50.000;9.194;2024-03-08T15:11:14;13.70;82.40
5476;DHT22;2760;50.000;9.194;2024-03-08T15:13:47;15.90;84.10
5476;DHT22;2760;50.000;9.194;2024-03-08T15:16:19;13.70;81.70
5476;DHT22;2760;50.000;9.194;2024-03-08T15:18:49;15.70;84.10
5476;DHT22;2760;50.000;9.194;2024-03-08T15:21:18;13.90;82.80
5476;DHT22;2760;50.000;9.194;2024-03-08T15:23:45;13.00;82.30
5476;DHT22;2760;50.000;9.194;2024-03-08T15:26:16;13.80;84.50
5476;DHT22;2760;50.000;9.194;2024-03-08T15:28:43;14.50;84.40
5476;DHT22;2760;50.000;9.194;2024-03-08T15:31:11;15.20;84.80
5476;DHT22;2760;50.000;9.194;2024-03-08T15:33:40;14.70;84.50
5476;DHT22;2760;50.000;9.194;2024-03-08T15:36:14;12.90;83.20
5476;DHT22;2760;50.000;9.194;2024-03-08T15:38:43;12.80;83.40
5476;DHT22;2760;50.000;9.194;2024-03-08T15:41:13;11.20;81.60
5476;DHT22;2760;50.000;9.194;2024-03-08T15:43:42;12.70;83.10
5476;DHT22;2760;50.000;9.194;2024-03-08T15:46:10;12.90;84.20
5476;DHT22;2760;50.000;9.194;2024-03-08T15:48:39;13.20;84.40
5476;DHT22;2760;50.000;9.194;2024-03-08T15:51:08;14.30;85.40
5476;DHT22;2760;50.000;9.194;2024-03-08T15:53:37;12.60;83.90
5476;DHT22;2760;50.000;9.194;2024-03-08T15:56:07;12.90;84.20
5476;DHT22;2760;50.000;9.194;2024-03-08T15:58:35;14.30;86.00
5476;DHT22;2760;50.000;9.194;2024-03-08T16:01:02;12.30;83.60
5476;DHT22;2760;50.000;9.194;2024-03-08T16:03:31;12.30;83.30
5476;DHT22;2760;50.000;9.194;2024-03-08T16:06:00;11.00;82.00
5476;DHT22;2760;50.000;9.194;2024-03-08T16:08:30;12.20;83.90
5476;DHT22;2760;50.000;9.194;2024-03-08T16:10:58;12.20;85.20
5476;DHT22;2760;50.000;9.194;2024-03-08T16:13:26;12.30;84.40
5476;DHT22;2760;50.000;9.194;2024-03-08T16:15:55;12.90;84.70
5476;DHT22;2760;50.000;9.194;2024-03-08T16:18:24;12.20;84.50
5476;DHT22;2760;50.000;9.194;2024-03-08T16:20:52;12.30;84.90
5476;DHT22;2760;50.000;9.194;2024-03-08T16:23:22;12.30;84.10
5476;DHT22;2760;50.000;9.194;2024-03-08T16:25:50;12.20;84.30
5476;DHT22;2760;50.000;9.194;2024-03-08T16:28:18;13.30;86.20
5476;DHT22;2760;50.000;9.194;2024-03-08T16:30:49;10.70;83.10
5476;DHT22;2760;50.000;9.194;2024-03-08T16:33:20;12.00;84.10